createdAt,value
2018-07-27T00:01:48.566Z,59.25
2018-07-27T00:04:17.071Z,58.94
2018-07-27T00:06:48.705Z,59.38
2018-07-27T00:09:21.232Z,58.99
2018-07-27T00:11:50.159Z,59.62
2018-07-27T00:14:19.049Z,59.78
2018-07-27T00:16:48.174Z,60.04
2018-07-27T00:19:17.048Z,60.07
2018-07-27T00:21:46.035Z,60.22
2018-07-27T00:24:15.020Z,60.44
2018-07-27T00:26:43.949Z,60.14
2018-07-27T00:29:15.140Z,60.46
2018-07-27T00:31:44.306Z,60.02
2018-07-27T00:34:12.920Z,60.59
2018-07-27T00:36:41.945Z,60.70
2018-07-27T00:39:11.199Z,60.51
2018-07-27T00:41:42.165Z,60.32
2018-07-27T00:44:10.995Z,60.67
2018-07-27T00:46:39.935Z,61.17
2018-07-27T00:49:10.256Z,61.05
2018-07-27T00:51:39.064Z,61.08
2018-07-27T00:54:08.217Z,61.03
2018-07-27T00:56:37.286Z,61.10
2018-07-27T00:59:08.855Z,61.58
2018-07-27T01:01:37.427Z,62.19
2018-07-27T01:04:05.982Z,61.69
2018-07-27T01:06:34.587Z,62.31
2018-07-27T01:09:03.453Z,62.19
2018-07-27T01:11:32.228Z,62.25
2018-07-27T01:14:00.846Z,62.82
2018-07-27T01:16:29.499Z,62.54
2018-07-27T01:18:58.182Z,63.11
2018-07-27T01:21:26.970Z,62.73
2018-07-27T01:23:55.555Z,63.00
2018-07-27T01:26:24.321Z,63.31
2018-07-27T01:28:53.019Z,63.19
2018-07-27T01:31:21.770Z,63.12
2018-07-27T01:33:50.521Z,63.13
2018-07-27T01:36:19.222Z,63.65
2018-07-27T01:38:47.993Z,63.79
2018-07-27T01:41:16.583Z,63.80
2018-07-27T01:43:45.267Z,64.14
2018-07-27T01:46:13.949Z,64.09
2018-07-27T01:48:42.705Z,64.68
2018-07-27T01:51:11.449Z,64.77
2018-07-27T01:53:39.989Z,65.42
2018-07-27T01:56:08.584Z,64.94
2018-07-27T01:58:37.330Z,65.89
2018-07-27T02:01:05.997Z,65.84
2018-07-27T02:03:34.527Z,65.89
2018-07-27T02:06:03.302Z,66.26
2018-07-27T02:08:31.989Z,66.42
2018-07-27T02:11:00.690Z,66.65
2018-07-27T02:13:29.304Z,66.79
2018-07-27T02:15:57.914Z,67.17
2018-07-27T02:18:26.689Z,67.06
2018-07-27T02:20:55.360Z,67.22
2018-07-27T02:23:24.020Z,67.73
2018-07-27T02:25:52.572Z,67.70
2018-07-27T02:28:21.466Z,67.70
2018-07-27T02:30:50.170Z,68.08
2018-07-27T02:33:18.840Z,67.75
2018-07-27T02:35:47.457Z,68.09
2018-07-27T02:38:16.009Z,68.14
2018-07-27T02:40:44.635Z,68.26
2018-07-27T02:43:13.251Z,68.34
2018-07-27T02:45:41.856Z,68.66
2018-07-27T02:48:10.519Z,68.10
2018-07-27T02:50:39.204Z,67.79
2018-07-27T02:53:07.943Z,68.33
2018-07-27T02:55:36.590Z,68.48
2018-07-27T02:58:05.230Z,68.13
2018-07-27T03:00:33.785Z,68.56
2018-07-27T03:03:02.532Z,68.32
2018-07-27T03:05:31.226Z,68.68
2018-07-27T03:07:59.887Z,68.65
2018-07-27T03:10:28.579Z,69.04
2018-07-27T03:12:57.215Z,68.75
2018-07-27T03:15:25.831Z,68.91
2018-07-27T03:17:54.491Z,69.16
2018-07-27T03:20:23.022Z,69.43
2018-07-27T03:22:51.581Z,69.65
2018-07-27T03:25:20.099Z,70.12
2018-07-27T03:27:48.650Z,70.01
2018-07-27T03:30:17.624Z,70.00
2018-07-27T03:32:46.338Z,70.60
2018-07-27T03:35:14.957Z,70.23
2018-07-27T03:37:43.480Z,70.85
2018-07-27T03:40:12.241Z,70.32
2018-07-27T03:42:40.879Z,70.79
2018-07-27T03:45:09.403Z,70.60
2018-07-27T03:47:38.082Z,70.89
2018-07-27T03:50:06.784Z,70.67
2018-07-27T03:52:35.555Z,70.88
2018-07-27T03:55:04.414Z,70.24
2018-07-27T03:57:33.100Z,70.54
2018-07-27T04:00:01.797Z,70.63
2018-07-27T04:02:30.591Z,70.84
2018-07-27T04:04:59.336Z,70.45
2018-07-27T04:07:28.108Z,70.29
2018-07-27T04:09:56.736Z,70.47
2018-07-27T04:12:27.626Z,71.18
2018-07-27T04:14:56.472Z,70.99
2018-07-27T04:17:25.060Z,71.19
2018-07-27T04:19:53.766Z,71.24
2018-07-27T04:22:23.095Z,71.21
2018-07-27T04:24:52.851Z,71.69
2018-07-27T04:27:21.560Z,71.57
2018-07-27T04:29:50.352Z,71.51
2018-07-27T04:32:19.839Z,71.77
2018-07-27T04:34:48.648Z,72.00
2018-07-27T04:37:17.325Z,71.94
2018-07-27T04:39:46.199Z,72.31
2018-07-27T04:42:14.856Z,71.99
2018-07-27T04:44:43.467Z,71.82
2018-07-27T04:47:12.075Z,71.82
2018-07-27T04:49:40.696Z,71.95
2018-07-27T04:52:09.261Z,71.46
2018-07-27T04:54:38.012Z,71.92
2018-07-27T04:57:06.680Z,71.78
2018-07-27T04:59:35.305Z,71.48
2018-07-27T05:02:04.044Z,71.75
2018-07-27T05:04:32.635Z,71.83
2018-07-27T05:07:01.363Z,71.23
2018-07-27T05:09:30.143Z,71.70
2018-07-27T05:11:58.865Z,71.68
2018-07-27T05:14:28.511Z,71.46
2018-07-27T05:16:57.221Z,70.95
2018-07-27T05:19:25.875Z,70.86
2018-07-27T05:21:54.569Z,70.88
2018-07-27T05:24:24.169Z,70.76
2018-07-27T05:26:52.787Z,70.43
2018-07-27T05:29:21.529Z,70.12
2018-07-27T05:31:50.267Z,69.24
2018-07-27T05:34:18.937Z,68.63
2018-07-27T05:36:47.598Z,68.42
2018-07-27T05:39:16.353Z,68.45
2018-07-27T05:41:45.116Z,68.02
2018-07-27T05:44:13.849Z,67.32
2018-07-27T05:46:42.539Z,67.03
2018-07-27T05:49:11.336Z,66.58
2018-07-27T05:51:39.919Z,66.34
2018-07-27T05:54:11.798Z,66.37
2018-07-27T05:56:40.418Z,65.82
2018-07-27T05:59:09.022Z,65.12
2018-07-27T06:01:37.619Z,65.32
2018-07-27T06:04:06.539Z,65.10
2018-07-27T06:06:35.146Z,63.49
2018-07-27T06:09:03.999Z,63.37
2018-07-27T06:11:32.626Z,62.23
2018-07-27T06:14:37.718Z,61.77
2018-07-27T06:20:50.946Z,58.73
2018-07-27T06:23:56.162Z,56.94
2018-07-27T06:26:39.642Z,55.80
2018-07-27T06:29:15.724Z,54.55
2018-07-27T06:32:05.319Z,53.06
2018-07-27T06:37:40.307Z,51.81
2018-07-27T06:40:26.731Z,50.99
2018-07-27T06:43:13.444Z,50.53
2018-07-27T06:45:52.130Z,50.35
2018-07-27T06:55:37.936Z,48.92
2018-07-27T06:58:18.613Z,47.97
2018-07-27T07:01:04.564Z,47.84
2018-07-27T07:03:34.075Z,47.66
2018-07-27T07:06:02.625Z,46.49
2018-07-27T07:08:31.291Z,46.43
2018-07-27T07:10:59.941Z,45.24
2018-07-27T07:13:28.504Z,45.65
2018-07-27T07:15:57.130Z,45.45
2018-07-27T07:18:25.764Z,45.51
2018-07-27T07:20:54.848Z,44.62
2018-07-27T07:23:23.470Z,43.55
2018-07-27T07:26:13.060Z,44.37
2018-07-27T07:28:41.545Z,43.29
2018-07-27T07:31:10.206Z,43.26
2018-07-27T07:33:38.885Z,43.26
2018-07-27T07:36:07.573Z,43.55
2018-07-27T07:38:36.186Z,43.51
2018-07-27T07:41:04.825Z,43.21
2018-07-27T07:43:33.405Z,43.06
2018-07-27T07:46:06.631Z,43.41
2018-07-27T07:48:35.249Z,42.83
2018-07-27T07:51:03.905Z,42.94
2018-07-27T07:53:32.541Z,41.86
2018-07-27T07:56:04.272Z,41.58
2018-07-27T07:58:33.074Z,41.63
2018-07-27T08:01:01.702Z,40.65
2018-07-27T08:03:30.265Z,40.92
2018-07-27T08:05:58.921Z,41.03
2018-07-27T08:08:27.507Z,39.72
2018-07-27T08:10:56.165Z,39.85
2018-07-27T08:13:24.841Z,39.45
2018-07-27T08:15:56.687Z,38.29
2018-07-27T08:18:25.308Z,38.85
2018-07-27T08:20:54.939Z,37.80
2018-07-27T08:23:23.651Z,37.55
2018-07-27T08:27:02.922Z,37.70
2018-07-27T08:29:33.906Z,36.63
2018-07-27T08:32:02.952Z,35.62
2018-07-27T08:34:32.625Z,36.55
2018-07-27T08:37:01.315Z,35.99
2018-07-27T08:39:33.528Z,36.06
2018-07-27T08:42:11.687Z,35.61
2018-07-27T08:44:43.920Z,35.18
2018-07-27T08:47:12.607Z,35.30
2018-07-27T08:49:41.265Z,34.80
2018-07-27T08:52:09.864Z,34.27
2018-07-27T08:55:25.606Z,34.00
2018-07-27T08:57:54.375Z,33.77
2018-07-27T09:00:32.839Z,33.94
2018-07-27T09:03:01.486Z,34.18
2018-07-27T09:05:30.616Z,33.14
2018-07-27T09:07:59.410Z,33.81
2018-07-27T09:10:28.946Z,33.75
2018-07-27T09:12:57.594Z,33.42
2018-07-27T09:15:39.923Z,31.52
2018-07-27T09:18:08.677Z,31.20
2018-07-27T09:20:37.294Z,31.76
2018-07-27T09:23:06.334Z,31.20
2018-07-27T09:25:36.114Z,31.24
2018-07-27T09:28:04.831Z,30.83
2018-07-27T09:30:33.684Z,31.35
2018-07-27T09:33:02.327Z,30.78
2018-07-27T09:35:40.863Z,31.68
2018-07-27T09:38:10.478Z,31.02
2018-07-27T09:40:39.202Z,32.70
2018-07-27T09:43:08.078Z,31.45
2018-07-27T09:45:47.760Z,31.17
2018-07-27T09:48:16.451Z,30.91
2018-07-27T09:50:45.705Z,31.14
2018-07-27T09:53:15.244Z,30.28
2018-07-27T09:55:46.005Z,30.22
2018-07-27T09:58:14.644Z,30.81
2018-07-27T10:00:48.907Z,30.12
2018-07-27T10:03:17.567Z,31.00
2018-07-27T10:05:47.359Z,30.66
2018-07-27T10:08:16.127Z,30.71
2018-07-27T10:10:44.736Z,31.05
2018-07-27T10:13:13.815Z,30.86
2018-07-27T10:15:43.409Z,30.56
2018-07-27T10:18:12.259Z,29.92
2018-07-27T10:20:40.993Z,28.89
2018-07-27T10:23:09.803Z,29.74
2018-07-27T10:25:39.107Z,28.45
2018-07-27T10:28:08.071Z,28.95
2018-07-27T10:30:36.908Z,29.45
2018-07-27T10:33:05.672Z,29.69
2018-07-27T10:35:34.494Z,29.33
2018-07-27T10:38:03.227Z,29.00
2018-07-27T10:40:32.014Z,29.29
2018-07-27T10:43:00.733Z,29.36
2018-07-27T10:45:29.525Z,29.77
2018-07-27T10:47:58.569Z,29.06
2018-07-27T10:50:27.294Z,29.18
2018-07-27T10:52:56.107Z,27.99
2018-07-27T10:55:25.732Z,27.41
2018-07-27T10:57:54.376Z,27.74
2018-07-27T11:00:23.094Z,27.67
2018-07-27T11:02:51.858Z,27.28
2018-07-27T11:05:20.506Z,27.04
2018-07-27T11:07:52.441Z,27.27
2018-07-27T11:10:21.439Z,26.78
2018-07-27T11:12:50.297Z,26.52
2018-07-27T11:15:19.057Z,25.79
2018-07-27T11:17:47.819Z,25.16
2018-07-27T11:20:16.798Z,25.86
2018-07-27T11:22:45.643Z,25.18
2018-07-27T11:25:14.687Z,25.17
2018-07-27T11:27:55.996Z,25.27
2018-07-27T11:30:34.648Z,24.35
2018-07-27T11:33:07.679Z,23.59
2018-07-27T11:35:36.325Z,23.75
2018-07-27T11:38:06.130Z,24.75
2018-07-27T11:40:34.987Z,24.13
2018-07-27T11:43:09.039Z,23.91
2018-07-27T11:45:39.296Z,22.77
2018-07-27T11:48:17.146Z,22.99
2018-07-27T11:50:45.882Z,23.07
2018-07-27T11:53:14.641Z,22.60
2018-07-27T11:55:43.407Z,22.14
2018-07-27T11:58:13.116Z,22.12
2018-07-27T12:00:41.861Z,22.21
2018-07-27T12:03:10.569Z,21.68
2018-07-27T12:05:39.244Z,22.38
2018-07-27T12:08:08.935Z,21.67
2018-07-27T12:10:37.875Z,21.78
2018-07-27T12:13:06.986Z,21.29
2018-07-27T12:15:35.783Z,22.20
2018-07-27T12:18:04.551Z,20.22
2018-07-27T12:20:33.742Z,20.69
2018-07-27T12:23:02.487Z,20.71
2018-07-27T12:25:31.243Z,20.74
2018-07-27T12:27:59.963Z,21.09
2018-07-27T12:30:33.151Z,22.14
2018-07-27T12:33:01.924Z,21.44
2018-07-27T12:35:30.899Z,21.09
2018-07-27T12:38:15.123Z,20.09
2018-07-27T12:40:43.737Z,20.31
2018-07-27T12:43:13.421Z,20.25
2018-07-27T12:45:44.176Z,20.58
2018-07-27T12:48:27.101Z,21.20
2018-07-27T12:50:55.800Z,20.04
2018-07-27T12:53:24.456Z,17.60
2018-07-27T12:55:53.204Z,15.35
2018-07-27T12:58:42.569Z,13.21
2018-07-27T13:01:11.690Z,12.23
2018-07-27T13:03:40.460Z,11.11
2018-07-27T13:06:09.377Z,10.87
2018-07-27T13:08:38.387Z,10.91
2018-07-27T13:11:07.481Z,10.61
2018-07-27T13:13:36.424Z,9.79
2018-07-27T13:16:05.581Z,10.09
2018-07-27T13:18:34.298Z,8.74
2018-07-27T13:21:03.107Z,8.50
2018-07-27T13:23:31.829Z,8.43
2018-07-27T13:28:44.603Z,9.33
2018-07-27T13:31:14.253Z,8.65
2018-07-27T13:34:57.664Z,8.60
2018-07-27T13:38:01.241Z,8.59
2018-07-27T13:40:30.040Z,8.34
2018-07-27T13:42:58.810Z,8.40
2018-07-27T13:45:27.986Z,8.11
2018-07-27T13:48:08.370Z,6.98
2018-07-27T13:50:37.163Z,7.10
2018-07-27T13:53:05.945Z,7.46
2018-07-27T13:55:52.345Z,7.42
2018-07-27T13:58:29.050Z,7.08
2018-07-27T14:00:57.693Z,7.19
2018-07-27T14:03:26.811Z,7.14
2018-07-27T14:05:55.730Z,7.65
2018-07-27T14:08:24.472Z,6.96
2018-07-27T14:10:53.097Z,7.88
2018-07-27T14:13:21.974Z,7.28
2018-07-27T14:15:50.630Z,5.59
2018-07-27T14:18:28.721Z,6.71
2018-07-27T14:20:57.495Z,6.59
2018-07-27T14:23:26.276Z,6.44
2018-07-27T14:25:55.111Z,6.65
2018-07-27T14:28:23.791Z,6.55
2018-07-27T14:30:52.390Z,6.23
2018-07-27T14:33:21.147Z,5.64
2018-07-27T14:35:49.821Z,5.25
2018-07-27T14:38:18.440Z,5.47
2018-07-27T14:40:47.169Z,6.11
2018-07-27T14:43:15.853Z,6.67
2018-07-27T14:45:44.437Z,6.75
2018-07-27T14:48:27.365Z,6.86
2018-07-27T14:50:56.008Z,5.96
2018-07-27T14:53:24.669Z,6.24
2018-07-27T14:55:53.408Z,5.66
2018-07-27T14:58:30.832Z,5.83
2018-07-27T15:00:59.455Z,5.32
2018-07-27T15:03:30.242Z,5.97
2018-07-27T15:05:58.884Z,5.69
2018-07-27T15:08:31.710Z,5.37
2018-07-27T15:11:00.588Z,6.08
2018-07-27T15:13:29.404Z,5.64
2018-07-27T15:15:58.058Z,5.29
2018-07-27T15:18:27.747Z,5.73
2018-07-27T15:20:56.653Z,6.09
2018-07-27T15:23:25.418Z,5.82
2018-07-27T15:25:54.161Z,6.09
2018-07-27T15:28:22.990Z,6.44
2018-07-27T15:30:51.828Z,5.78
2018-07-27T15:33:20.561Z,6.41
2018-07-27T15:35:49.276Z,6.17
2018-07-27T15:38:35.014Z,5.75
2018-07-27T15:41:03.726Z,5.67
2018-07-27T15:43:32.436Z,5.85
2018-07-27T15:46:01.043Z,5.42
2018-07-27T15:48:29.875Z,6.09
2018-07-27T15:50:58.365Z,6.39
2018-07-27T15:53:27.127Z,5.52
2018-07-27T15:55:55.885Z,5.88
2018-07-27T15:58:24.637Z,5.85
2018-07-27T16:00:53.393Z,6.04
2018-07-27T16:03:22.259Z,6.20
2018-07-27T16:05:50.962Z,5.95
2018-07-27T16:08:19.694Z,6.76
2018-07-27T16:10:48.484Z,6.30
2018-07-27T16:13:17.213Z,6.60
2018-07-27T16:15:45.923Z,6.58
2018-07-27T16:18:14.654Z,6.32
2018-07-27T16:20:43.361Z,7.53
2018-07-27T16:23:12.101Z,7.86
2018-07-27T16:25:40.813Z,7.99
2018-07-27T16:28:09.543Z,8.17
2018-07-27T16:30:38.329Z,7.19
2018-07-27T16:33:07.073Z,8.01
2018-07-27T16:35:35.857Z,7.81
2018-07-27T16:38:04.598Z,8.60
2018-07-27T16:40:33.394Z,9.10
2018-07-27T16:43:02.108Z,8.75
2018-07-27T16:45:30.958Z,9.57
2018-07-27T16:47:59.772Z,9.64
2018-07-27T16:50:28.534Z,9.67
2018-07-27T16:52:57.370Z,10.02
2018-07-27T16:55:26.097Z,9.75
2018-07-27T16:57:54.848Z,10.03
2018-07-27T17:00:23.555Z,10.13
2018-07-27T17:02:52.505Z,10.02
2018-07-27T17:05:21.152Z,10.23
2018-07-27T17:07:49.922Z,10.44
2018-07-27T17:10:18.855Z,11.27
2018-07-27T17:12:47.509Z,11.73
2018-07-27T17:15:16.246Z,11.67
2018-07-27T17:17:44.860Z,12.12
2018-07-27T17:20:13.604Z,12.51
2018-07-27T17:22:42.295Z,12.59
2018-07-27T17:25:11.135Z,13.52
2018-07-27T17:27:39.912Z,13.52
2018-07-27T17:30:09.354Z,13.62
2018-07-27T17:32:38.540Z,13.78
2018-07-27T17:35:07.150Z,14.20
2018-07-27T17:37:36.394Z,14.39
2018-07-27T17:40:05.868Z,14.39
2018-07-27T17:42:34.715Z,14.52
2018-07-27T17:45:03.511Z,15.37
2018-07-27T17:47:32.293Z,14.42
2018-07-27T17:50:00.949Z,15.05
2018-07-27T17:52:29.538Z,15.64
2018-07-27T17:54:58.305Z,16.10
2018-07-27T17:57:26.948Z,16.48
2018-07-27T17:59:55.685Z,17.09
2018-07-27T18:02:24.388Z,16.94
2018-07-27T18:04:53.210Z,17.60
2018-07-27T18:07:22.000Z,17.81
2018-07-27T18:09:50.553Z,18.41
2018-07-27T18:12:19.265Z,18.87
2018-07-27T18:14:48.033Z,20.22
2018-07-27T18:17:16.626Z,20.17
2018-07-27T18:19:45.289Z,21.17
2018-07-27T18:22:14.683Z,21.42
2018-07-27T18:24:43.295Z,23.62
2018-07-27T18:27:12.013Z,23.96
2018-07-27T18:29:40.855Z,24.80
2018-07-27T18:32:09.555Z,25.13
2018-07-27T18:34:38.338Z,25.43
2018-07-27T18:37:06.908Z,26.19
2018-07-27T18:39:35.751Z,27.52
2018-07-27T18:42:04.306Z,28.27
2018-07-27T18:44:33.053Z,29.53
2018-07-27T18:47:01.956Z,29.77
2018-07-27T18:49:30.748Z,31.50
2018-07-27T18:51:59.503Z,32.22
2018-07-27T18:54:28.228Z,32.22
2018-07-27T18:56:56.950Z,33.12
2018-07-27T18:59:25.742Z,33.62
2018-07-27T19:01:54.414Z,34.83
2018-07-27T19:04:23.097Z,35.29
2018-07-27T19:06:51.845Z,35.39
2018-07-27T19:09:20.553Z,36.97
2018-07-27T19:11:49.298Z,36.67
2018-07-27T19:14:17.917Z,37.07
2018-07-27T19:16:46.639Z,37.74
2018-07-27T19:19:17.407Z,37.97
2018-07-27T19:21:46.081Z,38.40
2018-07-27T19:24:14.820Z,38.35
2018-07-27T19:26:43.525Z,39.36
2018-07-27T19:29:13.264Z,40.01
2018-07-27T19:31:42.386Z,40.48
2018-07-27T19:34:11.170Z,40.51
2018-07-27T19:36:40.832Z,41.41
2018-07-27T19:39:11.569Z,42.16
2018-07-27T19:41:40.793Z,42.24
2018-07-27T19:44:09.393Z,43.02
2018-07-27T19:46:38.087Z,43.23
2018-07-27T19:49:06.985Z,43.31
2018-07-27T19:51:35.801Z,43.96
2018-07-27T19:54:04.362Z,43.83
2018-07-27T19:56:33.088Z,44.71
2018-07-27T19:59:01.681Z,44.26
2018-07-27T20:01:30.286Z,44.54
2018-07-27T20:03:58.889Z,44.34
2018-07-27T20:06:27.619Z,44.78
2018-07-27T20:08:56.861Z,45.04
2018-07-27T20:11:25.496Z,45.38
2018-07-27T20:13:54.206Z,45.90
2018-07-27T20:16:23.043Z,45.90
2018-07-27T20:18:51.791Z,45.88
2018-07-27T20:21:20.511Z,46.34
2018-07-27T20:23:49.214Z,46.42
2018-07-27T20:26:17.941Z,47.14
2018-07-27T20:28:46.551Z,47.04
2018-07-27T20:31:15.261Z,47.76
2018-07-27T20:33:43.826Z,47.73
2018-07-27T20:36:12.504Z,48.20
2018-07-27T20:38:41.312Z,48.35
2018-07-27T20:41:09.991Z,48.77
2018-07-27T20:43:38.620Z,49.43
2018-07-27T20:46:07.266Z,49.66
2018-07-27T20:48:35.988Z,50.01
2018-07-27T20:51:04.603Z,50.43
2018-07-27T20:53:33.218Z,50.31
2018-07-27T20:56:01.964Z,50.89
2018-07-27T20:58:30.601Z,50.28
2018-07-27T21:00:59.376Z,51.23
2018-07-27T21:03:27.988Z,50.78
2018-07-27T21:05:56.666Z,51.45
2018-07-27T21:08:25.328Z,51.65
2018-07-27T21:10:54.126Z,51.93
2018-07-27T21:13:22.907Z,52.40
2018-07-27T21:15:51.602Z,52.06
2018-07-27T21:18:20.371Z,52.07
2018-07-27T21:20:49.127Z,52.51
2018-07-27T21:23:17.792Z,52.54
2018-07-27T21:25:46.503Z,52.47
2018-07-27T21:28:15.242Z,52.28
2018-07-27T21:30:44.024Z,52.30
2018-07-27T21:33:12.765Z,51.64
2018-07-27T21:35:41.918Z,50.57
2018-07-27T21:38:10.978Z,50.06
2018-07-27T21:40:39.816Z,50.43
2018-07-27T21:43:08.406Z,50.18
2018-07-27T21:45:37.131Z,50.13
2018-07-27T21:48:06.191Z,50.05
2018-07-27T21:50:34.968Z,49.35
2018-07-27T21:53:03.706Z,49.10
2018-07-27T21:55:32.909Z,49.68
2018-07-27T21:58:01.801Z,49.32
2018-07-27T22:00:33.465Z,49.71
2018-07-27T22:03:04.656Z,49.44
2018-07-27T22:05:33.476Z,49.17
2018-07-27T22:08:02.247Z,49.67
2018-07-27T22:10:30.877Z,49.12
2018-07-27T22:12:59.644Z,50.20
2018-07-27T22:15:28.362Z,49.93
2018-07-27T22:17:57.130Z,50.61
2018-07-27T22:20:25.926Z,50.08
2018-07-27T22:22:54.620Z,50.24
2018-07-27T22:25:23.332Z,50.70
2018-07-27T22:27:52.083Z,50.99
2018-07-27T22:30:20.920Z,51.17
2018-07-27T22:32:49.613Z,51.07
2018-07-27T22:35:18.354Z,51.41
2018-07-27T22:37:47.064Z,51.69
2018-07-27T22:40:15.656Z,51.92
2018-07-27T22:42:44.475Z,52.21
2018-07-27T22:45:13.168Z,52.19
2018-07-27T22:47:41.829Z,52.22
2018-07-27T22:50:10.519Z,52.06
2018-07-27T22:52:40.552Z,52.67
2018-07-27T22:55:12.411Z,52.24
2018-07-27T22:57:42.128Z,52.97
2018-07-27T23:00:14.661Z,52.37
2018-07-27T23:02:43.801Z,53.25
2018-07-27T23:05:13.458Z,53.28
2018-07-27T23:07:42.288Z,54.17
2018-07-27T23:10:11.603Z,53.41
2018-07-27T23:12:40.763Z,54.33
2018-07-27T23:15:11.303Z,54.65
2018-07-27T23:17:40.161Z,54.84
2018-07-27T23:20:11.159Z,54.71
2018-07-27T23:22:40.872Z,55.10
2018-07-27T23:25:09.661Z,55.35
2018-07-27T23:27:38.507Z,55.99
2018-07-27T23:30:09.538Z,56.72
2018-07-27T23:32:38.311Z,56.04
2018-07-27T23:35:06.982Z,56.63
2018-07-27T23:37:35.726Z,57.40
2018-07-27T23:40:04.951Z,57.54
2018-07-27T23:42:33.726Z,57.18
2018-07-27T23:45:02.533Z,57.80
2018-07-27T23:47:31.255Z,57.43
2018-07-27T23:49:59.943Z,57.95
2018-07-27T23:52:28.750Z,58.29
2018-07-27T23:54:57.502Z,58.40
2018-07-27T23:57:26.237Z,58.42
2018-07-27T23:59:54.870Z,58.78
